Terminal Aerodrome Forecast
Issued by NWS

Current Version | Previous Version | Text Only | Print | Product List | Glossary On
Versions: 1 2 3 4 5 6 7 8 9 10 11 12
000
FTUS41 KLWX 181700
TAFMTN
TAF
KMTN 181735Z 1818/1918 25017G24KT P6SM SCT060 SCT080
     FM182300 29011G20KT P6SM FEW040 SCT060
     FM191400 31013G21KT P6SM SCT150=

USA.gov is the U.S. government's official web portal to all federal, state and local government web resources and services.